sensor_id;sensor_type;location;lat;lon;timestamp;temperature;humidity
9816;DHT22;4947;44.526;11.360;2022-07-23T00:01:35;28.80;52.00
9816;DHT22;4947;44.526;11.360;2022-07-23T00:04:04;28.80;51.20
9816;DHT22;4947;44.526;11.360;2022-07-23T00:06:35;28.90;51.30
9816;DHT22;4947;44.526;11.360;2022-07-23T00:09:02;28.80;51.80
9816;DHT22;4947;44.526;11.360;2022-07-23T00:11:32;28.80;52.00
9816;DHT22;4947;44.526;11.360;2022-07-23T00:13:59;28.80;52.30
9816;DHT22;4947;44.526;11.360;2022-07-23T00:16:26;28.70;53.00
9816;DHT22;4947;44.526;11.360;2022-07-23T00:18:54;28.60;53.30
9816;DHT22;4947;44.526;11.360;2022-07-23T00:21:22;28.50;53.60
9816;DHT22;4947;44.526;11.360;2022-07-23T00:23:49;28.50;53.70
9816;DHT22;4947;44.526;11.360;2022-07-23T00:26:17;28.40;54.10
9816;DHT22;4947;44.526;11.360;2022-07-23T00:28:46;28.30;54.50
9816;DHT22;4947;44.526;11.360;2022-07-23T00:31:14;28.20;54.90
9816;DHT22;4947;44.526;11.360;2022-07-23T00:33:41;28.10;55.20
9816;DHT22;4947;44.526;11.360;2022-07-23T00:36:09;28.00;55.80
9816;DHT22;4947;44.526;11.360;2022-07-23T00:38:36;27.80;56.40
9816;DHT22;4947;44.526;11.360;2022-07-23T00:41:05;27.80;57.40
9816;DHT22;4947;44.526;11.360;2022-07-23T00:43:33;27.50;58.90
9816;DHT22;4947;44.526;11.360;2022-07-23T00:46:02;27.50;59.20
9816;DHT22;4947;44.526;11.360;2022-07-23T00:48:30;27.40;59.90
9816;DHT22;4947;44.526;11.360;2022-07-23T00:50:57;27.20;60.80
9816;DHT22;4947;44.526;11.360;2022-07-23T00:53:27;27.10;61.80
9816;DHT22;4947;44.526;11.360;2022-07-23T00:55:55;27.00;62.40
9816;DHT22;4947;44.526;11.360;2022-07-23T00:58:22;27.00;62.80
9816;DHT22;4947;44.526;11.360;2022-07-23T01:00:51;26.90;63.90
9816;DHT22;4947;44.526;11.360;2022-07-23T01:03:20;27.00;63.80
9816;DHT22;4947;44.526;11.360;2022-07-23T01:05:47;26.90;64.80
9816;DHT22;4947;44.526;11.360;2022-07-23T01:08:19;26.70;66.30
9816;DHT22;4947;44.526;11.360;2022-07-23T01:10:48;26.70;66.70
9816;DHT22;4947;44.526;11.360;2022-07-23T01:13:17;26.70;66.80
9816;DHT22;4947;44.526;11.360;2022-07-23T01:15:46;26.80;65.60
9816;DHT22;4947;44.526;11.360;2022-07-23T01:18:13;26.80;65.10
9816;DHT22;4947;44.526;11.360;2022-07-23T01:20:43;26.80;65.50
9816;DHT22;4947;44.526;11.360;2022-07-23T01:23:12;26.80;65.90
9816;DHT22;4947;44.526;11.360;2022-07-23T01:25:48;26.80;66.40
9816;DHT22;4947;44.526;11.360;2022-07-23T01:28:15;26.80;66.90
9816;DHT22;4947;44.526;11.360;2022-07-23T01:30:43;26.70;67.00
9816;DHT22;4947;44.526;11.360;2022-07-23T01:33:10;26.70;67.20
9816;DHT22;4947;44.526;11.360;2022-07-23T01:35:38;26.70;68.10
9816;DHT22;4947;44.526;11.360;2022-07-23T01:38:05;26.60;68.90
9816;DHT22;4947;44.526;11.360;2022-07-23T01:40:34;26.40;70.30
9816;DHT22;4947;44.526;11.360;2022-07-23T01:43:02;26.50;70.90
9816;DHT22;4947;44.526;11.360;2022-07-23T01:45:38;26.40;70.70
9816;DHT22;4947;44.526;11.360;2022-07-23T01:48:07;26.40;70.40
9816;DHT22;4947;44.526;11.360;2022-07-23T01:50:34;26.40;69.80
9816;DHT22;4947;44.526;11.360;2022-07-23T01:53:04;26.30;70.10
9816;DHT22;4947;44.526;11.360;2022-07-23T01:55:31;26.30;70.20
9816;DHT22;4947;44.526;11.360;2022-07-23T01:58:01;26.20;70.00
9816;DHT22;4947;44.526;11.360;2022-07-23T02:00:28;26.20;69.80
9816;DHT22;4947;44.526;11.360;2022-07-23T02:03:00;26.20;69.40
9816;DHT22;4947;44.526;11.360;2022-07-23T02:05:28;26.20;69.50
9816;DHT22;4947;44.526;11.360;2022-07-23T02:07:56;26.20;69.30
9816;DHT22;4947;44.526;11.360;2022-07-23T02:10:24;26.20;69.00
9816;DHT22;4947;44.526;11.360;2022-07-23T02:12:52;26.10;69.70
9816;DHT22;4947;44.526;11.360;2022-07-23T02:15:25;26.10;69.40
9816;DHT22;4947;44.526;11.360;2022-07-23T02:17:59;26.20;69.40
9816;DHT22;4947;44.526;11.360;2022-07-23T02:20:29;26.20;69.10
9816;DHT22;4947;44.526;11.360;2022-07-23T02:22:57;26.20;68.80
9816;DHT22;4947;44.526;11.360;2022-07-23T02:25:24;26.20;68.70
9816;DHT22;4947;44.526;11.360;2022-07-23T02:27:51;26.20;68.90
9816;DHT22;4947;44.526;11.360;2022-07-23T02:30:19;26.20;68.70
9816;DHT22;4947;44.526;11.360;2022-07-23T02:32:50;26.20;68.70
9816;DHT22;4947;44.526;11.360;2022-07-23T02:35:17;26.20;68.50
9816;DHT22;4947;44.526;11.360;2022-07-23T02:37:45;26.20;67.90
9816;DHT22;4947;44.526;11.360;2022-07-23T02:40:12;26.20;67.60
9816;DHT22;4947;44.526;11.360;2022-07-23T02:42:40;26.20;68.30
9816;DHT22;4947;44.526;11.360;2022-07-23T02:45:09;26.20;67.40
9816;DHT22;4947;44.526;11.360;2022-07-23T02:47:36;26.20;67.30
9816;DHT22;4947;44.526;11.360;2022-07-23T02:50:07;26.20;67.60
9816;DHT22;4947;44.526;11.360;2022-07-23T02:52:34;26.20;67.60
9816;DHT22;4947;44.526;11.360;2022-07-23T02:55:03;26.20;67.90
9816;DHT22;4947;44.526;11.360;2022-07-23T02:57:31;26.20;68.30
9816;DHT22;4947;44.526;11.360;2022-07-23T02:59:58;26.20;68.50
9816;DHT22;4947;44.526;11.360;2022-07-23T03:02:26;26.10;68.60
9816;DHT22;4947;44.526;11.360;2022-07-23T03:04:53;26.10;68.80
9816;DHT22;4947;44.526;11.360;2022-07-23T03:07:23;26.10;67.90
9816;DHT22;4947;44.526;11.360;2022-07-23T03:09:50;26.10;67.70
9816;DHT22;4947;44.526;11.360;2022-07-23T03:12:18;26.10;67.40
9816;DHT22;4947;44.526;11.360;2022-07-23T03:14:45;26.10;66.60
9816;DHT22;4947;44.526;11.360;2022-07-23T03:17:13;26.10;66.30
9816;DHT22;4947;44.526;11.360;2022-07-23T03:19:40;26.10;65.90
9816;DHT22;4947;44.526;11.360;2022-07-23T03:22:08;26.10;66.10
9816;DHT22;4947;44.526;11.360;2022-07-23T03:24:37;26.20;66.30
9816;DHT22;4947;44.526;11.360;2022-07-23T03:27:23;26.20;66.00
9816;DHT22;4947;44.526;11.360;2022-07-23T03:29:51;26.20;65.50
9816;DHT22;4947;44.526;11.360;2022-07-23T03:32:23;26.10;65.60
9816;DHT22;4947;44.526;11.360;2022-07-23T03:34:51;26.20;65.50
9816;DHT22;4947;44.526;11.360;2022-07-23T03:37:19;26.10;65.80
9816;DHT22;4947;44.526;11.360;2022-07-23T03:40:15;26.10;65.00
9816;DHT22;4947;44.526;11.360;2022-07-23T03:42:43;26.10;64.80
9816;DHT22;4947;44.526;11.360;2022-07-23T03:45:14;26.10;65.10
9816;DHT22;4947;44.526;11.360;2022-07-23T03:47:41;26.10;65.60
9816;DHT22;4947;44.526;11.360;2022-07-23T03:50:10;26.10;65.60
9816;DHT22;4947;44.526;11.360;2022-07-23T03:52:37;26.10;65.50
9816;DHT22;4947;44.526;11.360;2022-07-23T03:55:06;26.10;64.90
9816;DHT22;4947;44.526;11.360;2022-07-23T03:57:35;26.10;65.30
9816;DHT22;4947;44.526;11.360;2022-07-23T04:00:05;26.10;65.00
9816;DHT22;4947;44.526;11.360;2022-07-23T04:02:33;26.10;65.10
9816;DHT22;4947;44.526;11.360;2022-07-23T04:05:01;26.10;64.80
9816;DHT22;4947;44.526;11.360;2022-07-23T04:07:29;26.10;64.70
9816;DHT22;4947;44.526;11.360;2022-07-23T04:09:56;26.10;64.90
9816;DHT22;4947;44.526;11.360;2022-07-23T04:12:24;26.10;65.20
9816;DHT22;4947;44.526;11.360;2022-07-23T04:14:53;26.10;64.90
9816;DHT22;4947;44.526;11.360;2022-07-23T04:17:21;26.20;64.90
9816;DHT22;4947;44.526;11.360;2022-07-23T04:19:48;26.10;64.90
9816;DHT22;4947;44.526;11.360;2022-07-23T04:22:16;26.10;64.90
9816;DHT22;4947;44.526;11.360;2022-07-23T04:24:45;26.20;65.30
9816;DHT22;4947;44.526;11.360;2022-07-23T04:27:13;26.20;65.10
9816;DHT22;4947;44.526;11.360;2022-07-23T04:29:40;26.20;65.30
9816;DHT22;4947;44.526;11.360;2022-07-23T04:32:09;26.20;65.50
9816;DHT22;4947;44.526;11.360;2022-07-23T04:34:37;26.30;65.60
9816;DHT22;4947;44.526;11.360;2022-07-23T04:37:05;26.40;65.30
9816;DHT22;4947;44.526;11.360;2022-07-23T04:39:36;26.40;65.60
9816;DHT22;4947;44.526;11.360;2022-07-23T04:42:08;26.50;65.40
9816;DHT22;4947;44.526;11.360;2022-07-23T04:44:36;26.60;64.40
9816;DHT22;4947;44.526;11.360;2022-07-23T04:47:03;26.60;64.10
9816;DHT22;4947;44.526;11.360;2022-07-23T04:49:33;26.70;64.40
9816;DHT22;4947;44.526;11.360;2022-07-23T04:52:03;26.70;64.10
9816;DHT22;4947;44.526;11.360;2022-07-23T04:54:31;26.90;64.30
9816;DHT22;4947;44.526;11.360;2022-07-23T04:56:58;26.90;64.40
9816;DHT22;4947;44.526;11.360;2022-07-23T04:59:26;27.10;64.10
9816;DHT22;4947;44.526;11.360;2022-07-23T05:01:54;27.10;64.30
9816;DHT22;4947;44.526;11.360;2022-07-23T05:04:21;27.20;63.10
9816;DHT22;4947;44.526;11.360;2022-07-23T05:06:50;27.30;62.80
9816;DHT22;4947;44.526;11.360;2022-07-23T05:09:17;27.40;62.70
9816;DHT22;4947;44.526;11.360;2022-07-23T05:11:45;27.60;62.60
9816;DHT22;4947;44.526;11.360;2022-07-23T05:14:12;27.60;61.20
9816;DHT22;4947;44.526;11.360;2022-07-23T05:16:40;27.90;61.40
9816;DHT22;4947;44.526;11.360;2022-07-23T05:19:07;28.10;60.00
9816;DHT22;4947;44.526;11.360;2022-07-23T05:21:35;28.70;59.80
9816;DHT22;4947;44.526;11.360;2022-07-23T05:24:04;29.30;58.30
9816;DHT22;4947;44.526;11.360;2022-07-23T05:26:32;29.90;57.00
9816;DHT22;4947;44.526;11.360;2022-07-23T05:29:00;30.30;55.00
9816;DHT22;4947;44.526;11.360;2022-07-23T05:31:27;31.00;53.60
9816;DHT22;4947;44.526;11.360;2022-07-23T05:33:57;31.90;52.90
9816;DHT22;4947;44.526;11.360;2022-07-23T05:36:24;32.30;50.50
9816;DHT22;4947;44.526;11.360;2022-07-23T05:38:51;33.00;49.70
9816;DHT22;4947;44.526;11.360;2022-07-23T05:41:21;33.50;48.30
9816;DHT22;4947;44.526;11.360;2022-07-23T05:43:48;34.00;47.40
9816;DHT22;4947;44.526;11.360;2022-07-23T05:46:16;34.20;46.30
9816;DHT22;4947;44.526;11.360;2022-07-23T05:48:43;34.30;46.10
9816;DHT22;4947;44.526;11.360;2022-07-23T05:51:11;34.50;46.60
9816;DHT22;4947;44.526;11.360;2022-07-23T05:53:38;35.30;44.50
9816;DHT22;4947;44.526;11.360;2022-07-23T05:56:06;35.70;44.80
9816;DHT22;4947;44.526;11.360;2022-07-23T05:58:35;36.50;44.00
9816;DHT22;4947;44.526;11.360;2022-07-23T06:01:03;36.60;42.60
9816;DHT22;4947;44.526;11.360;2022-07-23T06:03:31;36.60;41.90
9816;DHT22;4947;44.526;11.360;2022-07-23T06:05:58;36.40;40.70
9816;DHT22;4947;44.526;11.360;2022-07-23T06:08:26;37.10;40.70
9816;DHT22;4947;44.526;11.360;2022-07-23T06:10:54;37.30;39.80
9816;DHT22;4947;44.526;11.360;2022-07-23T06:13:22;37.80;39.20
9816;DHT22;4947;44.526;11.360;2022-07-23T06:15:51;38.20;38.30
9816;DHT22;4947;44.526;11.360;2022-07-23T06:18:21;37.50;39.30
9816;DHT22;4947;44.526;11.360;2022-07-23T06:20:49;38.00;38.30
9816;DHT22;4947;44.526;11.360;2022-07-23T06:23:16;37.70;38.30
9816;DHT22;4947;44.526;11.360;2022-07-23T06:25:44;37.80;38.80
9816;DHT22;4947;44.526;11.360;2022-07-23T06:28:12;37.40;38.70
9816;DHT22;4947;44.526;11.360;2022-07-23T06:30:39;37.40;39.20
9816;DHT22;4947;44.526;11.360;2022-07-23T06:33:08;37.40;39.10
9816;DHT22;4947;44.526;11.360;2022-07-23T06:35:37;38.50;37.10
9816;DHT22;4947;44.526;11.360;2022-07-23T06:38:04;38.90;36.90
9816;DHT22;4947;44.526;11.360;2022-07-23T06:40:31;38.60;37.70
9816;DHT22;4947;44.526;11.360;2022-07-23T06:42:59;37.90;38.90
9816;DHT22;4947;44.526;11.360;2022-07-23T06:45:29;38.80;38.30
9816;DHT22;4947;44.526;11.360;2022-07-23T06:47:57;38.00;39.10
9816;DHT22;4947;44.526;11.360;2022-07-23T06:50:26;39.00;38.10
9816;DHT22;4947;44.526;11.360;2022-07-23T06:52:54;39.20;36.60
9816;DHT22;4947;44.526;11.360;2022-07-23T06:55:22;39.60;35.70
9816;DHT22;4947;44.526;11.360;2022-07-23T06:57:50;40.30;36.40
9816;DHT22;4947;44.526;11.360;2022-07-23T07:00:18;40.50;34.50
9816;DHT22;4947;44.526;11.360;2022-07-23T07:02:45;41.20;33.80
9816;DHT22;4947;44.526;11.360;2022-07-23T07:05:12;41.90;33.90
9816;DHT22;4947;44.526;11.360;2022-07-23T07:07:41;41.80;32.70
9816;DHT22;4947;44.526;11.360;2022-07-23T07:10:09;40.80;32.60
9816;DHT22;4947;44.526;11.360;2022-07-23T07:12:37;42.10;33.70
9816;DHT22;4947;44.526;11.360;2022-07-23T07:15:11;42.40;32.60
9816;DHT22;4947;44.526;11.360;2022-07-23T07:17:39;41.80;32.80
9816;DHT22;4947;44.526;11.360;2022-07-23T07:20:08;40.80;33.20
9816;DHT22;4947;44.526;11.360;2022-07-23T07:22:36;41.00;34.10
9816;DHT22;4947;44.526;11.360;2022-07-23T07:25:07;40.80;34.60
9816;DHT22;4947;44.526;11.360;2022-07-23T07:27:34;42.20;33.00
9816;DHT22;4947;44.526;11.360;2022-07-23T07:30:02;41.30;33.40
9816;DHT22;4947;44.526;11.360;2022-07-23T07:32:31;42.00;34.20
9816;DHT22;4947;44.526;11.360;2022-07-23T07:34:59;41.40;32.40
9816;DHT22;4947;44.526;11.360;2022-07-23T07:37:27;41.60;32.40
9816;DHT22;4947;44.526;11.360;2022-07-23T07:39:54;42.00;33.40
9816;DHT22;4947;44.526;11.360;2022-07-23T07:42:23;41.30;32.10
9816;DHT22;4947;44.526;11.360;2022-07-23T07:44:50;41.60;33.00
9816;DHT22;4947;44.526;11.360;2022-07-23T07:47:18;40.10;33.60
9816;DHT22;4947;44.526;11.360;2022-07-23T07:49:45;40.90;34.30
9816;DHT22;4947;44.526;11.360;2022-07-23T07:52:13;41.60;32.80
9816;DHT22;4947;44.526;11.360;2022-07-23T07:54:40;41.00;31.80
9816;DHT22;4947;44.526;11.360;2022-07-23T07:57:08;41.80;32.80
9816;DHT22;4947;44.526;11.360;2022-07-23T07:59:37;41.80;33.10
9816;DHT22;4947;44.526;11.360;2022-07-23T08:02:05;43.00;32.80
9816;DHT22;4947;44.526;11.360;2022-07-23T08:04:32;43.10;31.90
9816;DHT22;4947;44.526;11.360;2022-07-23T08:06:59;42.80;30.50
9816;DHT22;4947;44.526;11.360;2022-07-23T08:09:27;42.40;30.90
9816;DHT22;4947;44.526;11.360;2022-07-23T08:11:54;42.40;32.00
9816;DHT22;4947;44.526;11.360;2022-07-23T08:14:22;42.40;31.70
9816;DHT22;4947;44.526;11.360;2022-07-23T08:16:51;42.30;31.30
9816;DHT22;4947;44.526;11.360;2022-07-23T08:19:18;42.20;31.10
9816;DHT22;4947;44.526;11.360;2022-07-23T08:21:46;42.70;30.80
9816;DHT22;4947;44.526;11.360;2022-07-23T08:24:14;41.90;32.20
9816;DHT22;4947;44.526;11.360;2022-07-23T08:26:41;41.80;31.50
9816;DHT22;4947;44.526;11.360;2022-07-23T08:29:09;42.40;31.70
9816;DHT22;4947;44.526;11.360;2022-07-23T08:31:37;42.50;31.30
9816;DHT22;4947;44.526;11.360;2022-07-23T08:34:07;42.50;31.10
9816;DHT22;4947;44.526;11.360;2022-07-23T08:36:35;42.20;30.80
9816;DHT22;4947;44.526;11.360;2022-07-23T08:39:02;42.70;30.10
9816;DHT22;4947;44.526;11.360;2022-07-23T08:41:30;43.00;28.70
9816;DHT22;4947;44.526;11.360;2022-07-23T08:43:59;43.00;28.60
9816;DHT22;4947;44.526;11.360;2022-07-23T08:46:28;42.50;28.20
9816;DHT22;4947;44.526;11.360;2022-07-23T08:48:56;42.30;28.50
9816;DHT22;4947;44.526;11.360;2022-07-23T08:51:27;42.30;27.90
9816;DHT22;4947;44.526;11.360;2022-07-23T08:53:56;42.00;27.40
9816;DHT22;4947;44.526;11.360;2022-07-23T08:56:24;41.50;27.40
9816;DHT22;4947;44.526;11.360;2022-07-23T08:58:53;41.50;27.20
9816;DHT22;4947;44.526;11.360;2022-07-23T09:01:21;41.60;27.10
9816;DHT22;4947;44.526;11.360;2022-07-23T09:03:48;41.30;27.40
9816;DHT22;4947;44.526;11.360;2022-07-23T09:06:16;41.10;27.50
9816;DHT22;4947;44.526;11.360;2022-07-23T09:08:45;40.60;27.70
9816;DHT22;4947;44.526;11.360;2022-07-23T09:11:16;41.00;27.70
9816;DHT22;4947;44.526;11.360;2022-07-23T09:13:47;41.00;27.30
9816;DHT22;4947;44.526;11.360;2022-07-23T09:16:17;41.30;26.90
9816;DHT22;4947;44.526;11.360;2022-07-23T09:18:47;41.40;27.10
9816;DHT22;4947;44.526;11.360;2022-07-23T09:21:23;41.40;26.70
9816;DHT22;4947;44.526;11.360;2022-07-23T09:23:56;41.60;26.90
9816;DHT22;4947;44.526;11.360;2022-07-23T09:26:32;41.80;26.90
9816;DHT22;4947;44.526;11.360;2022-07-23T09:29:09;42.10;26.70
9816;DHT22;4947;44.526;11.360;2022-07-23T09:31:46;42.10;26.40
9816;DHT22;4947;44.526;11.360;2022-07-23T09:34:16;42.10;26.40
9816;DHT22;4947;44.526;11.360;2022-07-23T09:36:45;42.40;26.50
9816;DHT22;4947;44.526;11.360;2022-07-23T09:39:22;42.20;26.20
9816;DHT22;4947;44.526;11.360;2022-07-23T09:41:51;42.10;26.60
9816;DHT22;4947;44.526;11.360;2022-07-23T09:44:20;42.20;26.90
9816;DHT22;4947;44.526;11.360;2022-07-23T09:46:49;42.20;26.70
9816;DHT22;4947;44.526;11.360;2022-07-23T09:49:18;42.40;26.60
9816;DHT22;4947;44.526;11.360;2022-07-23T09:51:52;41.20;26.70
9816;DHT22;4947;44.526;11.360;2022-07-23T09:54:26;40.80;27.80
9816;DHT22;4947;44.526;11.360;2022-07-23T09:56:57;40.70;27.40
9816;DHT22;4947;44.526;11.360;2022-07-23T09:59:26;40.60;28.20
9816;DHT22;4947;44.526;11.360;2022-07-23T10:01:55;40.60;28.00
9816;DHT22;4947;44.526;11.360;2022-07-23T10:04:25;40.10;27.30
9816;DHT22;4947;44.526;11.360;2022-07-23T10:06:54;39.80;28.00
9816;DHT22;4947;44.526;11.360;2022-07-23T10:09:26;39.50;27.60
9816;DHT22;4947;44.526;11.360;2022-07-23T10:11:56;39.60;28.00
9816;DHT22;4947;44.526;11.360;2022-07-23T10:14:28;39.50;28.50
9816;DHT22;4947;44.526;11.360;2022-07-23T10:17:00;39.30;28.30
9816;DHT22;4947;44.526;11.360;2022-07-23T10:19:28;39.30;29.10
9816;DHT22;4947;44.526;11.360;2022-07-23T10:22:01;39.30;28.80
9816;DHT22;4947;44.526;11.360;2022-07-23T10:24:40;39.40;29.40
9816;DHT22;4947;44.526;11.360;2022-07-23T10:27:31;39.30;29.60
9816;DHT22;4947;44.526;11.360;2022-07-23T10:30:03;39.50;29.60
9816;DHT22;4947;44.526;11.360;2022-07-23T10:32:40;39.30;29.40
9816;DHT22;4947;44.526;11.360;2022-07-23T10:35:19;39.10;29.80
9816;DHT22;4947;44.526;11.360;2022-07-23T10:37:51;39.10;29.60
9816;DHT22;4947;44.526;11.360;2022-07-23T10:40:23;39.20;29.90
9816;DHT22;4947;44.526;11.360;2022-07-23T10:42:53;39.30;29.40
9816;DHT22;4947;44.526;11.360;2022-07-23T10:45:28;39.20;29.30
9816;DHT22;4947;44.526;11.360;2022-07-23T10:48:11;39.10;29.30
9816;DHT22;4947;44.526;11.360;2022-07-23T10:50:38;39.20;29.40
9816;DHT22;4947;44.526;11.360;2022-07-23T10:53:14;39.10;29.30
9816;DHT22;4947;44.526;11.360;2022-07-23T10:55:49;39.20;29.90
9816;DHT22;4947;44.526;11.360;2022-07-23T10:58:19;39.10;29.50
9816;DHT22;4947;44.526;11.360;2022-07-23T11:00:48;39.10;29.50
9816;DHT22;4947;44.526;11.360;2022-07-23T11:03:30;39.20;29.70
9816;DHT22;4947;44.526;11.360;2022-07-23T11:06:01;39.20;29.30
9816;DHT22;4947;44.526;11.360;2022-07-23T11:08:29;39.10;29.40
9816;DHT22;4947;44.526;11.360;2022-07-23T11:11:10;39.10;30.00
9816;DHT22;4947;44.526;11.360;2022-07-23T11:13:44;39.10;29.50
9816;DHT22;4947;44.526;11.360;2022-07-23T11:16:17;39.00;29.70
9816;DHT22;4947;44.526;11.360;2022-07-23T11:19:05;39.10;29.50
9816;DHT22;4947;44.526;11.360;2022-07-23T11:21:54;39.10;29.80
9816;DHT22;4947;44.526;11.360;2022-07-23T11:24:24;39.10;29.60
9816;DHT22;4947;44.526;11.360;2022-07-23T11:27:01;39.00;29.80
9816;DHT22;4947;44.526;11.360;2022-07-23T11:29:46;39.10;29.80
9816;DHT22;4947;44.526;11.360;2022-07-23T11:32:34;39.10;30.00
9816;DHT22;4947;44.526;11.360;2022-07-23T11:35:19;38.70;29.90
9816;DHT22;4947;44.526;11.360;2022-07-23T11:37:48;38.80;29.60
9816;DHT22;4947;44.526;11.360;2022-07-23T11:40:19;38.90;30.10
9816;DHT22;4947;44.526;11.360;2022-07-23T11:43:04;39.10;29.80
9816;DHT22;4947;44.526;11.360;2022-07-23T11:45:33;38.90;29.70
9816;DHT22;4947;44.526;11.360;2022-07-23T11:48:02;38.90;30.00
9816;DHT22;4947;44.526;11.360;2022-07-23T11:50:29;39.00;30.00
9816;DHT22;4947;44.526;11.360;2022-07-23T11:52:57;39.10;30.00
9816;DHT22;4947;44.526;11.360;2022-07-23T11:55:25;39.20;29.80
9816;DHT22;4947;44.526;11.360;2022-07-23T11:57:54;39.20;29.50
9816;DHT22;4947;44.526;11.360;2022-07-23T12:00:26;39.20;29.70
9816;DHT22;4947;44.526;11.360;2022-07-23T12:02:56;39.10;29.40
9816;DHT22;4947;44.526;11.360;2022-07-23T12:05:26;39.10;30.00
9816;DHT22;4947;44.526;11.360;2022-07-23T12:07:54;39.20;29.80
9816;DHT22;4947;44.526;11.360;2022-07-23T12:10:23;39.40;29.80
9816;DHT22;4947;44.526;11.360;2022-07-23T12:12:53;39.80;30.00
9816;DHT22;4947;44.526;11.360;2022-07-23T12:15:24;39.90;29.50
9816;DHT22;4947;44.526;11.360;2022-07-23T12:17:53;40.00;29.40
9816;DHT22;4947;44.526;11.360;2022-07-23T12:20:23;40.20;29.10
9816;DHT22;4947;44.526;11.360;2022-07-23T12:22:53;40.20;29.30
9816;DHT22;4947;44.526;11.360;2022-07-23T12:25:24;40.20;29.40
9816;DHT22;4947;44.526;11.360;2022-07-23T12:28:01;40.20;29.40
9816;DHT22;4947;44.526;11.360;2022-07-23T12:30:32;40.10;29.10
9816;DHT22;4947;44.526;11.360;2022-07-23T12:33:00;39.80;29.20
9816;DHT22;4947;44.526;11.360;2022-07-23T12:35:34;39.60;29.00
9816;DHT22;4947;44.526;11.360;2022-07-23T12:38:04;39.60;29.80
9816;DHT22;4947;44.526;11.360;2022-07-23T12:40:33;39.60;30.00
9816;DHT22;4947;44.526;11.360;2022-07-23T12:43:03;39.60;29.80
9816;DHT22;4947;44.526;11.360;2022-07-23T12:45:45;39.40;29.70
9816;DHT22;4947;44.526;11.360;2022-07-23T12:48:21;39.40;29.60
9816;DHT22;4947;44.526;11.360;2022-07-23T12:50:57;39.20;29.70
9816;DHT22;4947;44.526;11.360;2022-07-23T12:53:27;39.20;30.10
9816;DHT22;4947;44.526;11.360;2022-07-23T12:56:01;39.20;29.80
9816;DHT22;4947;44.526;11.360;2022-07-23T12:58:44;39.30;30.20
9816;DHT22;4947;44.526;11.360;2022-07-23T13:01:25;39.10;29.90
9816;DHT22;4947;44.526;11.360;2022-07-23T13:03:58;39.10;29.90
9816;DHT22;4947;44.526;11.360;2022-07-23T13:06:26;39.00;30.00
9816;DHT22;4947;44.526;11.360;2022-07-23T13:08:53;39.00;30.00
9816;DHT22;4947;44.526;11.360;2022-07-23T13:11:21;38.90;29.90
9816;DHT22;4947;44.526;11.360;2022-07-23T13:13:49;38.70;30.80
9816;DHT22;4947;44.526;11.360;2022-07-23T13:16:17;38.70;30.50
9816;DHT22;4947;44.526;11.360;2022-07-23T13:18:46;38.40;30.30
9816;DHT22;4947;44.526;11.360;2022-07-23T13:21:13;38.50;31.80
9816;DHT22;4947;44.526;11.360;2022-07-23T13:23:42;38.50;30.40
9816;DHT22;4947;44.526;11.360;2022-07-23T13:26:09;38.50;30.50
9816;DHT22;4947;44.526;11.360;2022-07-23T13:28:37;38.50;31.20
9816;DHT22;4947;44.526;11.360;2022-07-23T13:31:05;38.40;31.70
9816;DHT22;4947;44.526;11.360;2022-07-23T13:33:33;38.30;31.50
9816;DHT22;4947;44.526;11.360;2022-07-23T13:36:04;38.40;31.20
9816;DHT22;4947;44.526;11.360;2022-07-23T13:38:32;38.30;30.90
9816;DHT22;4947;44.526;11.360;2022-07-23T13:40:59;38.30;30.50
9816;DHT22;4947;44.526;11.360;2022-07-23T13:43:28;38.40;31.40
9816;DHT22;4947;44.526;11.360;2022-07-23T13:45:56;38.40;31.70
9816;DHT22;4947;44.526;11.360;2022-07-23T13:48:23;38.30;30.70
9816;DHT22;4947;44.526;11.360;2022-07-23T13:50:51;38.40;30.90
9816;DHT22;4947;44.526;11.360;2022-07-23T13:53:22;38.50;31.00
9816;DHT22;4947;44.526;11.360;2022-07-23T13:55:52;38.50;31.00
9816;DHT22;4947;44.526;11.360;2022-07-23T13:58:20;38.50;31.00
9816;DHT22;4947;44.526;11.360;2022-07-23T14:00:50;38.50;31.40
9816;DHT22;4947;44.526;11.360;2022-07-23T14:03:19;38.50;31.30
9816;DHT22;4947;44.526;11.360;2022-07-23T14:05:48;38.60;31.00
9816;DHT22;4947;44.526;11.360;2022-07-23T14:08:16;38.70;31.30
9816;DHT22;4947;44.526;11.360;2022-07-23T14:10:44;38.70;31.20
9816;DHT22;4947;44.526;11.360;2022-07-23T14:13:12;38.80;31.40
9816;DHT22;4947;44.526;11.360;2022-07-23T14:15:39;38.90;30.90
9816;DHT22;4947;44.526;11.360;2022-07-23T14:18:07;39.00;31.40
9816;DHT22;4947;44.526;11.360;2022-07-23T14:20:34;39.00;30.80
9816;DHT22;4947;44.526;11.360;2022-07-23T14:23:02;39.00;31.10
9816;DHT22;4947;44.526;11.360;2022-07-23T14:25:29;39.00;30.60
9816;DHT22;4947;44.526;11.360;2022-07-23T14:27:59;39.00;31.20
9816;DHT22;4947;44.526;11.360;2022-07-23T14:30:27;39.00;30.60
9816;DHT22;4947;44.526;11.360;2022-07-23T14:32:54;38.90;30.70
9816;DHT22;4947;44.526;11.360;2022-07-23T14:35:22;38.90;31.40
9816;DHT22;4947;44.526;11.360;2022-07-23T14:37:50;39.00;31.10
9816;DHT22;4947;44.526;11.360;2022-07-23T14:40:18;38.70;30.50
9816;DHT22;4947;44.526;11.360;2022-07-23T14:42:46;38.70;31.80
9816;DHT22;4947;44.526;11.360;2022-07-23T14:45:14;38.80;31.40
9816;DHT22;4947;44.526;11.360;2022-07-23T14:47:42;38.90;31.00
9816;DHT22;4947;44.526;11.360;2022-07-23T14:50:10;39.00;31.10
9816;DHT22;4947;44.526;11.360;2022-07-23T14:52:38;39.00;31.50
9816;DHT22;4947;44.526;11.360;2022-07-23T14:55:06;39.00;30.90
9816;DHT22;4947;44.526;11.360;2022-07-23T14:57:33;39.00;31.00
9816;DHT22;4947;44.526;11.360;2022-07-23T15:00:01;38.90;31.00
9816;DHT22;4947;44.526;11.360;2022-07-23T15:02:30;38.80;31.10
9816;DHT22;4947;44.526;11.360;2022-07-23T15:04:58;38.70;31.20
9816;DHT22;4947;44.526;11.360;2022-07-23T15:07:28;38.70;31.40
9816;DHT22;4947;44.526;11.360;2022-07-23T15:09:56;38.70;31.00
9816;DHT22;4947;44.526;11.360;2022-07-23T15:12:23;38.70;31.00
9816;DHT22;4947;44.526;11.360;2022-07-23T15:14:51;38.80;30.80
9816;DHT22;4947;44.526;11.360;2022-07-23T15:17:19;38.90;31.30
9816;DHT22;4947;44.526;11.360;2022-07-23T15:19:48;38.80;30.90
9816;DHT22;4947;44.526;11.360;2022-07-23T15:22:16;38.70;31.30
9816;DHT22;4947;44.526;11.360;2022-07-23T15:24:43;38.80;30.90
9816;DHT22;4947;44.526;11.360;2022-07-23T15:27:11;38.70;31.20
9816;DHT22;4947;44.526;11.360;2022-07-23T15:29:38;38.70;30.70
9816;DHT22;4947;44.526;11.360;2022-07-23T15:32:06;38.80;31.50
9816;DHT22;4947;44.526;11.360;2022-07-23T15:34:33;38.90;31.50
9816;DHT22;4947;44.526;11.360;2022-07-23T15:37:02;38.80;30.80
9816;DHT22;4947;44.526;11.360;2022-07-23T15:39:33;38.90;30.90
9816;DHT22;4947;44.526;11.360;2022-07-23T15:42:02;38.90;30.90
9816;DHT22;4947;44.526;11.360;2022-07-23T15:44:30;38.90;31.20
9816;DHT22;4947;44.526;11.360;2022-07-23T15:46:58;38.90;31.10
9816;DHT22;4947;44.526;11.360;2022-07-23T15:49:26;38.70;31.60
9816;DHT22;4947;44.526;11.360;2022-07-23T15:51:54;38.60;31.60
9816;DHT22;4947;44.526;11.360;2022-07-23T15:54:24;38.60;31.30
9816;DHT22;4947;44.526;11.360;2022-07-23T15:56:52;38.40;31.10
9816;DHT22;4947;44.526;11.360;2022-07-23T15:59:28;38.40;31.80